Time;durP1;ratioP1;P1;durP2;ratioP2;P2;SDS_P1;SDS_P2;PMS_P1;PMS_P2;Temp;Humidity;BMP_temperature;BMP_pressure;BME280_temperature;BME280_humidity;BME280_pressure;Samples;Min_cycle;Max_cycle;Signal;HPM_P1;HPM_P2
2022/12/16 00:01:17;;;;;;;426.40;231.57;;;;;;;-6.58;72.51;100703.22;4170336;28;20765;-51
2022/12/16 00:03:21;;;;;;;416.67;188.67;;;;;;;-6.59;72.54;100696.25;4170533;28;20311;-53
2022/12/16 00:05:23;;;;;;;450.13;282.80;;;;;;;-6.66;72.30;100699.22;4165459;28;20904;-54
2022/12/16 00:07:25;;;;;;;462.57;301.17;;;;;;;-6.69;72.51;100702.84;4169884;28;20281;-55
2022/12/16 00:09:28;;;;;;;465.00;326.80;;;;;;;-6.68;72.77;100707.16;4168597;28;20311;-52
2022/12/16 00:11:31;;;;;;;446.77;263.40;;;;;;;-6.68;72.84;100709.78;4167809;28;20660;-52
2022/12/16 00:13:34;;;;;;;445.27;266.20;;;;;;;-6.65;72.83;100714.06;4163006;28;20877;-51
2022/12/16 00:15:37;;;;;;;440.47;247.67;;;;;;;-6.63;72.60;100717.47;4168188;28;20747;-56
2022/12/16 00:17:39;;;;;;;445.43;280.30;;;;;;;-6.68;72.31;100720.28;4168480;28;20206;-54
2022/12/16 00:19:43;;;;;;;434.83;239.87;;;;;;;-6.78;71.95;100721.63;4169449;28;20306;-56
2022/12/16 00:21:45;;;;;;;434.53;239.00;;;;;;;-6.90;72.17;100717.75;4170310;28;20679;-54
2022/12/16 00:23:48;;;;;;;421.03;205.47;;;;;;;-6.83;72.63;100729.69;4167783;28;20291;-53
2022/12/16 00:25:51;;;;;;;438.37;273.97;;;;;;;-6.79;72.70;100738.28;4164223;28;20726;-52
2022/12/16 00:27:53;;;;;;;433.87;255.03;;;;;;;-6.78;72.48;100737.38;4170130;28;20279;-50
2022/12/16 00:29:55;;;;;;;435.37;245.20;;;;;;;-6.80;72.33;100745.34;4171002;28;20321;-50
2022/12/16 00:31:57;;;;;;;459.00;302.67;;;;;;;-6.87;72.02;100738.63;4165248;28;20313;-50
2022/12/16 00:34:00;;;;;;;474.10;341.10;;;;;;;-6.93;72.03;100733.63;4178926;28;20286;-51
2022/12/16 00:36:04;;;;;;;454.20;281.17;;;;;;;-6.98;72.01;100733.81;4176542;28;20222;-53
2022/12/16 00:38:06;;;;;;;470.37;336.87;;;;;;;-6.95;72.52;100735.47;4179061;28;20234;-52
2022/12/16 00:40:10;;;;;;;475.60;333.17;;;;;;;-6.92;72.26;100740.59;4174305;28;20306;-54
2022/12/16 00:42:13;;;;;;;456.83;289.83;;;;;;;-6.91;72.51;100737.91;4164333;28;20767;-54
2022/12/16 00:44:15;;;;;;;459.17;300.97;;;;;;;-6.93;72.15;100739.75;4167720;28;20290;-53
2022/12/16 00:46:17;;;;;;;467.47;334.87;;;;;;;-6.92;71.99;100732.72;4174170;28;20784;-53
2022/12/16 00:48:21;;;;;;;462.23;321.03;;;;;;;-6.93;72.09;100734.50;4167549;28;20277;-54
2022/12/16 00:50:24;;;;;;;458.73;302.20;;;;;;;-6.99;71.79;100726.88;4168847;28;20318;-53
2022/12/16 00:52:27;;;;;;;462.07;314.70;;;;;;;-6.96;72.05;100728.50;4152722;28;20757;-54
2022/12/16 00:54:29;;;;;;;430.07;190.50;;;;;;;-6.97;71.76;100739.94;4161336;28;20282;-53
2022/12/16 00:56:32;;;;;;;433.67;209.27;;;;;;;-7.02;71.88;100729.63;4153743;28;20227;-52
2022/12/16 00:58:35;;;;;;;453.07;273.37;;;;;;;-6.95;72.00;100730.22;4163488;28;20279;-53
2022/12/16 01:00:37;;;;;;;455.73;268.13;;;;;;;-6.93;71.97;100731.00;4162408;28;20319;-56
2022/12/16 01:02:40;;;;;;;452.67;274.90;;;;;;;-6.93;72.08;100724.00;4164482;28;20299;-57
2022/12/16 01:04:42;;;;;;;455.80;282.57;;;;;;;-6.88;71.99;100729.91;4178668;28;20700;-53
2022/12/16 01:06:46;;;;;;;452.70;267.37;;;;;;;-6.83;72.06;100726.19;4177418;28;20310;-53
2022/12/16 01:08:50;;;;;;;457.20;285.93;;;;;;;-6.78;72.10;100721.63;4177813;28;20283;-53
2022/12/16 01:10:52;;;;;;;452.63;275.43;;;;;;;-6.77;71.83;100733.81;4176930;28;20314;-54
2022/12/16 01:12:55;;;;;;;461.57;316.07;;;;;;;-6.83;71.28;100731.44;4178723;28;20721;-53
2022/12/16 01:14:57;;;;;;;466.00;319.63;;;;;;;-6.99;71.22;100726.00;4177909;28;20294;-54
2022/12/16 01:16:59;;;;;;;466.27;346.10;;;;;;;-6.93;71.38;100738.88;4177551;28;20921;-54
2022/12/16 01:19:02;;;;;;;447.87;264.17;;;;;;;-6.92;71.25;100745.84;4153636;28;20700;-57
2022/12/16 01:21:05;;;;;;;440.57;241.07;;;;;;;-6.92;71.54;100740.59;4178343;28;20780;-55
2022/12/16 01:23:07;;;;;;;426.90;184.73;;;;;;;-6.87;71.75;100730.75;4167843;28;20283;-55
2022/12/16 01:25:12;;;;;;;442.73;229.73;;;;;;;-6.85;71.76;100736.78;4175020;28;20251;-54
2022/12/16 01:27:15;;;;;;;443.03;254.23;;;;;;;-6.86;71.49;100732.47;4179364;28;20214;-53
2022/12/16 01:29:17;;;;;;;441.20;244.93;;;;;;;-6.85;71.47;100733.31;4179091;28;20656;-54
2022/12/16 01:31:20;;;;;;;444.30;250.27;;;;;;;-6.88;71.57;100729.91;4166093;28;20326;-50
2022/12/16 01:33:23;;;;;;;442.83;258.87;;;;;;;-6.86;71.29;100731.59;4175713;28;20282;-51
2022/12/16 01:35:25;;;;;;;445.07;268.17;;;;;;;-6.88;71.48;100734.28;4161308;28;20315;-52
2022/12/16 01:37:27;;;;;;;430.97;220.30;;;;;;;-6.91;71.17;100731.81;4162392;28;20230;-53
2022/12/16 01:39:30;;;;;;;464.10;321.73;;;;;;;-6.92;71.76;100737.97;4162950;28;20310;-53
2022/12/16 01:41:34;;;;;;;458.50;308.13;;;;;;;-6.90;71.79;100741.38;4162681;28;20274;-55
2022/12/16 01:43:37;;;;;;;440.20;242.33;;;;;;;-6.89;71.66;100738.69;4162916;28;20302;-51
2022/12/16 01:45:40;;;;;;;435.10;231.47;;;;;;;-6.88;71.76;100729.91;4161546;28;20660;-51
2022/12/16 01:47:42;;;;;;;429.00;217.63;;;;;;;-6.89;71.52;100730.81;4162319;28;20315;-53
2022/12/16 01:49:48;;;;;;;428.60;212.90;;;;;;;-6.90;71.26;100734.34;4162587;28;20314;-54
2022/12/16 01:51:50;;;;;;;420.77;203.23;;;;;;;-6.94;71.22;100730.16;4162313;28;20322;-51
2022/12/16 01:53:56;;;;;;;425.37;225.60;;;;;;;-6.93;71.39;100739.75;4162760;28;20292;-52
2022/12/16 01:56:00;;;;;;;435.20;230.00;;;;;;;-6.97;71.04;100734.69;4150922;28;20315;-54
2022/12/16 01:58:05;;;;;;;438.60;244.27;;;;;;;-6.99;71.17;100733.88;4163061;28;20203;-53
2022/12/16 02:00:09;;;;;;;428.83;224.47;;;;;;;-6.98;71.60;100728.56;4162316;28;20306;-50
2022/12/16 02:02:18;;;;;;;422.33;203.63;;;;;;;-6.94;71.73;100734.56;4162661;28;20294;-51
2022/12/16 02:04:20;;;;;;;433.73;228.33;;;;;;;-6.90;71.96;100734.34;4162685;28;20319;-51
2022/12/16 02:06:22;;;;;;;445.33;271.63;;;;;;;-6.89;72.30;100722.94;4162833;28;20318;-53
2022/12/16 02:08:24;;;;;;;439.17;257.30;;;;;;;-6.80;72.07;100737.44;4163676;28;20631;-52
2022/12/16 02:10:36;;;;;;;441.17;275.30;;;;;;;-6.77;71.75;100732.06;4162805;28;20665;-51
2022/12/16 02:12:44;;;;;;;433.60;239.97;;;;;;;-6.76;71.88;100727.66;4155021;28;20270;-51
2022/12/16 02:15:03;;;;;;;429.90;222.83;;;;;;;-6.79;71.74;100725.16;4166693;28;20291;-53
2022/12/16 02:17:11;;;;;;;435.10;252.63;;;;;;;-6.78;71.70;100721.63;4170985;28;21588;-53
2022/12/16 02:19:29;;;;;;;425.43;227.87;;;;;;;-6.82;71.56;100714.78;4162618;28;20265;-51
2022/12/16 02:21:40;;;;;;;414.50;182.13;;;;;;;-6.84;71.71;100721.88;4163884;28;20314;-54
2022/12/16 02:24:11;;;;;;;426.70;239.43;;;;;;;-6.83;71.85;100713.94;4168095;28;20305;-52
2022/12/16 02:26:47;;;;;;;427.87;236.17;;;;;;;-6.83;71.57;100721.81;4176972;28;20242;-52
2022/12/16 02:29:15;;;;;;;420.73;199.97;;;;;;;-6.86;71.36;100721.97;4155867;28;20281;-50
2022/12/16 02:31:24;;;;;;;423.67;214.17;;;;;;;-6.92;71.20;100719.59;4180584;28;20265;-51
2022/12/16 02:33:39;;;;;;;421.40;211.67;;;;;;;-6.97;71.31;100721.56;4168877;28;20226;-52
2022/12/16 02:35:45;;;;;;;422.27;209.23;;;;;;;-7.00;71.59;100717.28;4179931;28;20325;-53
2022/12/16 02:37:53;;;;;;;414.47;195.60;;;;;;;-7.00;71.47;100711.19;4180861;28;20293;-50
2022/12/16 02:39:59;;;;;;;408.87;177.60;;;;;;;-6.99;71.56;100719.00;4160190;28;21023;-53
2022/12/16 02:42:08;;;;;;;453.07;274.87;;;;;;;-6.98;71.49;100712.81;4176846;28;21758;-54
2022/12/16 02:44:11;;;;;;;441.07;244.87;;;;;;;-7.01;71.50;100720.81;4181362;28;20306;-55
2022/12/16 02:46:14;;;;;;;427.63;209.60;;;;;;;-7.01;71.19;100725.22;4180002;28;20665;-52
2022/12/16 02:48:18;;;;;;;418.03;203.10;;;;;;;-7.03;71.36;100716.56;4181533;28;20234;-54
2022/12/16 02:50:22;;;;;;;428.00;229.87;;;;;;;-7.03;71.21;100714.78;4170507;28;20314;-53
2022/12/16 02:52:26;;;;;;;436.60;246.73;;;;;;;-6.99;71.46;100721.63;4170682;28;20273;-52
2022/12/16 02:54:28;;;;;;;427.90;229.50;;;;;;;-7.00;71.19;100719.06;4168544;28;20291;-55
2022/12/16 02:56:39;;;;;;;433.00;226.87;;;;;;;-7.03;71.07;100717.41;4176413;28;20321;-56
2022/12/16 02:58:48;;;;;;;453.60;275.37;;;;;;;-7.05;71.13;100714.03;4181308;28;20278;-50
2022/12/16 03:00:56;;;;;;;456.33;290.77;;;;;;;-7.01;71.18;100712.94;4180496;28;20229;-51
2022/12/16 03:03:01;;;;;;;426.33;213.40;;;;;;;-7.01;71.08;100710.31;4172976;28;20262;-51
2022/12/16 03:05:09;;;;;;;443.60;250.43;;;;;;;-7.01;71.03;100707.69;4167078;28;20302;-53
2022/12/16 03:07:13;;;;;;;443.97;269.00;;;;;;;-7.03;70.70;100703.44;4180571;28;20278;-51
2022/12/16 03:09:20;;;;;;;445.90;269.00;;;;;;;-7.09;70.63;100697.53;4180977;28;20326;-53
2022/12/16 03:11:24;;;;;;;434.73;218.77;;;;;;;-7.09;70.75;100704.56;4180302;28;20683;-54
2022/12/16 03:13:27;;;;;;;444.07;272.13;;;;;;;-7.04;71.15;100706.97;4178754;28;20279;-53
2022/12/16 03:15:31;;;;;;;440.03;242.47;;;;;;;-7.06;70.65;100701.78;4162579;28;20310;-54
2022/12/16 03:17:35;;;;;;;448.03;269.07;;;;;;;-7.06;70.30;100704.41;4175875;28;20274;-52
2022/12/16 03:19:39;;;;;;;447.67;275.60;;;;;;;-7.09;70.49;100704.56;4180839;28;20254;-56
2022/12/16 03:21:45;;;;;;;427.37;230.47;;;;;;;-7.13;70.37;100709.09;4155974;28;20720;-52
2022/12/16 03:23:51;;;;;;;441.23;278.33;;;;;;;-7.13;70.68;100701.22;4157880;28;20650;-55
2022/12/16 03:25:56;;;;;;;452.37;295.60;;;;;;;-7.13;70.62;100695.09;4155496;28;20315;-54
2022/12/16 03:28:03;;;;;;;449.03;292.27;;;;;;;-7.14;70.59;100693.41;4164089;28;20283;-53
2022/12/16 03:30:09;;;;;;;452.60;305.63;;;;;;;-7.16;70.67;100689.97;4163791;28;20306;-56
2022/12/16 03:32:15;;;;;;;437.70;248.57;;;;;;;-7.13;70.60;100687.22;4163663;28;20287;-52
2022/12/16 03:34:21;;;;;;;434.67;233.63;;;;;;;-7.14;70.44;100689.00;4164443;28;20287;-52
2022/12/16 03:36:25;;;;;;;438.53;253.53;;;;;;;-7.12;70.57;100691.56;4162568;28;20322;-56
2022/12/16 03:38:30;;;;;;;427.40;226.60;;;;;;;-7.17;70.60;100683.88;4163620;28;20286;-54
2022/12/16 03:40:33;;;;;;;430.70;240.67;;;;;;;-7.15;70.28;100684.66;4163580;28;20423;-53
2022/12/16 03:42:37;;;;;;;427.53;228.77;;;;;;;-7.19;70.24;100692.72;4164586;28;20196;-54
2022/12/16 03:44:40;;;;;;;427.57;229.43;;;;;;;-7.21;70.34;100686.69;4164243;28;20303;-54
2022/12/16 03:46:42;;;;;;;456.23;300.07;;;;;;;-7.18;70.72;100684.78;4163355;28;20310;-56
2022/12/16 03:48:46;;;;;;;448.67;268.60;;;;;;;-7.13;70.75;100682.84;4164766;28;20278;-56
2022/12/16 03:50:48;;;;;;;450.50;284.23;;;;;;;-7.11;70.27;100683.63;4163425;28;20342;-56
2022/12/16 03:52:51;;;;;;;451.73;284.10;;;;;;;-7.15;70.10;100689.06;4164229;28;20621;-52
2022/12/16 03:54:54;;;;;;;446.23;274.43;;;;;;;-7.18;69.90;100686.56;4163806;28;20286;-54
2022/12/16 03:56:56;;;;;;;435.77;234.63;;;;;;;-7.24;69.96;100685.06;4160188;28;20783;-56
2022/12/16 03:58:59;;;;;;;425.27;210.40;;;;;;;-7.32;70.06;100688.00;4164433;28;20284;-53
2022/12/16 04:01:01;;;;;;;426.90;223.07;;;;;;;-7.34;70.16;100689.81;4163790;28;20339;-55
2022/12/16 04:03:03;;;;;;;423.00;213.50;;;;;;;-7.34;70.53;100700.31;4164499;28;20199;-54
2022/12/16 04:05:06;;;;;;;429.43;232.03;;;;;;;-7.27;70.84;100695.69;4162559;28;20297;-55
2022/12/16 04:07:23;;;;;;;421.23;214.87;;;;;;;-7.19;70.98;100700.59;4165413;28;20307;-56
2022/12/16 04:09:25;;;;;;;427.70;239.97;;;;;;;-7.16;70.61;100698.72;4163570;28;20756;-55
2022/12/16 04:25:37;;;;;;;424.17;234.37;;;;;;;-7.10;70.28;100723.84;4143516;28;20642;-53
2022/12/16 04:27:45;;;;;;;425.40;241.30;;;;;;;-7.12;70.03;100720.44;4169187;28;20305;-52
2022/12/16 04:32:07;;;;;;;434.07;249.03;;;;;;;-7.17;70.07;100720.63;4160352;28;21560;-52
2022/12/16 04:34:27;;;;;;;431.97;252.40;;;;;;;-7.17;70.23;100719.78;4169341;28;20278;-53
